sensor_id;sensor_type;location;lat;lon;timestamp;P1;durP1;ratioP1;P2;durP2;ratioP2
49101;SDS011;34913;47.520;19.186;2022-08-19T00:01:15;6.15;;;5.45;;
49101;SDS011;34913;47.520;19.186;2022-08-19T00:03:41;6.63;;;5.72;;
49101;SDS011;34913;47.520;19.186;2022-08-19T00:06:06;6.88;;;5.57;;
49101;SDS011;34913;47.520;19.186;2022-08-19T00:08:32;6.38;;;5.38;;
49101;SDS011;34913;47.520;19.186;2022-08-19T00:10:58;6.85;;;6.18;;
49101;SDS011;34913;47.520;19.186;2022-08-19T00:13:23;7.45;;;5.95;;
49101;SDS011;34913;47.520;19.186;2022-08-19T00:15:48;7.70;;;6.20;;
49101;SDS011;34913;47.520;19.186;2022-08-19T00:18:14;6.82;;;5.57;;
49101;SDS011;34913;47.520;19.186;2022-08-19T00:20:39;9.57;;;5.90;;
49101;SDS011;34913;47.520;19.186;2022-08-19T00:23:05;6.57;;;5.72;;
49101;SDS011;34913;47.520;19.186;2022-08-19T00:25:31;8.57;;;5.85;;
49101;SDS011;34913;47.520;19.186;2022-08-19T00:27:58;8.10;;;5.90;;
49101;SDS011;34913;47.520;19.186;2022-08-19T00:30:24;9.98;;;6.03;;
49101;SDS011;34913;47.520;19.186;2022-08-19T00:32:52;7.15;;;5.65;;
49101;SDS011;34913;47.520;19.186;2022-08-19T00:35:19;7.18;;;5.70;;
49101;SDS011;34913;47.520;19.186;2022-08-19T00:37:46;6.35;;;5.75;;
49101;SDS011;34913;47.520;19.186;2022-08-19T00:40:13;7.32;;;6.03;;
49101;SDS011;34913;47.520;19.186;2022-08-19T00:42:39;6.60;;;5.78;;
49101;SDS011;34913;47.520;19.186;2022-08-19T00:45:13;8.45;;;6.38;;
49101;SDS011;34913;47.520;19.186;2022-08-19T00:47:42;8.90;;;6.03;;
49101;SDS011;34913;47.520;19.186;2022-08-19T00:50:09;9.43;;;6.07;;
49101;SDS011;34913;47.520;19.186;2022-08-19T00:52:42;12.50;;;6.22;;
49101;SDS011;34913;47.520;19.186;2022-08-19T00:55:11;7.60;;;5.50;;
49101;SDS011;34913;47.520;19.186;2022-08-19T00:57:41;8.93;;;5.88;;
49101;SDS011;34913;47.520;19.186;2022-08-19T01:00:12;7.68;;;6.32;;
49101;SDS011;34913;47.520;19.186;2022-08-19T01:02:41;7.93;;;6.30;;
49101;SDS011;34913;47.520;19.186;2022-08-19T01:05:08;7.10;;;6.00;;
49101;SDS011;34913;47.520;19.186;2022-08-19T01:07:36;9.15;;;6.25;;
49101;SDS011;34913;47.520;19.186;2022-08-19T01:10:06;7.45;;;5.85;;
49101;SDS011;34913;47.520;19.186;2022-08-19T01:12:33;7.32;;;6.00;;
49101;SDS011;34913;47.520;19.186;2022-08-19T01:14:59;7.50;;;5.80;;
49101;SDS011;34913;47.520;19.186;2022-08-19T01:17:25;6.25;;;5.65;;
49101;SDS011;34913;47.520;19.186;2022-08-19T01:19:52;8.88;;;6.38;;
49101;SDS011;34913;47.520;19.186;2022-08-19T01:27:15;7.25;;;5.95;;
49101;SDS011;34913;47.520;19.186;2022-08-19T01:29:42;7.35;;;6.15;;
49101;SDS011;34913;47.520;19.186;2022-08-19T01:32:11;9.43;;;6.03;;
49101;SDS011;34913;47.520;19.186;2022-08-19T01:34:38;10.88;;;6.15;;
49101;SDS011;34913;47.520;19.186;2022-08-19T01:37:08;7.50;;;6.35;;
49101;SDS011;34913;47.520;19.186;2022-08-19T01:39:36;7.15;;;6.07;;
49101;SDS011;34913;47.520;19.186;2022-08-19T01:42:04;7.07;;;5.93;;
49101;SDS011;34913;47.520;19.186;2022-08-19T01:44:32;7.60;;;6.50;;
49101;SDS011;34913;47.520;19.186;2022-08-19T01:46:58;7.07;;;6.15;;
49101;SDS011;34913;47.520;19.186;2022-08-19T01:49:24;8.23;;;6.00;;
49101;SDS011;34913;47.520;19.186;2022-08-19T01:51:51;7.93;;;6.38;;
49101;SDS011;34913;47.520;19.186;2022-08-19T01:54:19;9.93;;;6.53;;
49101;SDS011;34913;47.520;19.186;2022-08-19T01:56:45;8.75;;;6.70;;
49101;SDS011;34913;47.520;19.186;2022-08-19T01:59:12;10.50;;;6.65;;
49101;SDS011;34913;47.520;19.186;2022-08-19T02:01:40;8.18;;;6.30;;
49101;SDS011;34913;47.520;19.186;2022-08-19T02:04:06;9.88;;;6.50;;
49101;SDS011;34913;47.520;19.186;2022-08-19T02:06:32;10.80;;;6.93;;
49101;SDS011;34913;47.520;19.186;2022-08-19T02:08:58;7.95;;;6.68;;
49101;SDS011;34913;47.520;19.186;2022-08-19T02:11:25;7.47;;;6.68;;
49101;SDS011;34913;47.520;19.186;2022-08-19T02:13:54;7.35;;;6.35;;
49101;SDS011;34913;47.520;19.186;2022-08-19T02:16:19;6.95;;;6.30;;
49101;SDS011;34913;47.520;19.186;2022-08-19T02:18:46;9.80;;;6.85;;
49101;SDS011;34913;47.520;19.186;2022-08-19T02:21:14;9.98;;;6.47;;
49101;SDS011;34913;47.520;19.186;2022-08-19T02:23:43;9.55;;;6.60;;
49101;SDS011;34913;47.520;19.186;2022-08-19T02:26:09;7.60;;;6.28;;
49101;SDS011;34913;47.520;19.186;2022-08-19T02:28:35;8.57;;;6.45;;
49101;SDS011;34913;47.520;19.186;2022-08-19T02:31:02;7.25;;;6.45;;
49101;SDS011;34913;47.520;19.186;2022-08-19T02:33:28;9.75;;;6.72;;
49101;SDS011;34913;47.520;19.186;2022-08-19T02:35:54;8.65;;;6.20;;
49101;SDS011;34913;47.520;19.186;2022-08-19T02:38:20;8.43;;;6.38;;
49101;SDS011;34913;47.520;19.186;2022-08-19T02:41:02;7.65;;;6.38;;
49101;SDS011;34913;47.520;19.186;2022-08-19T02:43:30;8.18;;;6.60;;
49101;SDS011;34913;47.520;19.186;2022-08-19T02:45:57;7.97;;;6.10;;
49101;SDS011;34913;47.520;19.186;2022-08-19T02:48:24;8.07;;;6.65;;
49101;SDS011;34913;47.520;19.186;2022-08-19T02:50:51;10.43;;;6.68;;
49101;SDS011;34913;47.520;19.186;2022-08-19T02:53:20;8.85;;;6.38;;
49101;SDS011;34913;47.520;19.186;2022-08-19T02:55:51;9.68;;;6.72;;
49101;SDS011;34913;47.520;19.186;2022-08-19T02:58:17;9.05;;;6.43;;
49101;SDS011;34913;47.520;19.186;2022-08-19T03:00:47;8.23;;;6.55;;
49101;SDS011;34913;47.520;19.186;2022-08-19T03:03:17;9.10;;;7.03;;
49101;SDS011;34913;47.520;19.186;2022-08-19T03:05:43;6.65;;;6.03;;
49101;SDS011;34913;47.520;19.186;2022-08-19T03:08:09;8.95;;;6.63;;
49101;SDS011;34913;47.520;19.186;2022-08-19T03:10:44;9.45;;;6.90;;
49101;SDS011;34913;47.520;19.186;2022-08-19T03:13:12;10.15;;;6.95;;
49101;SDS011;34913;47.520;19.186;2022-08-19T03:15:40;9.68;;;7.00;;
49101;SDS011;34913;47.520;19.186;2022-08-19T03:18:07;7.45;;;6.70;;
49101;SDS011;34913;47.520;19.186;2022-08-19T03:20:33;10.15;;;6.90;;
49101;SDS011;34913;47.520;19.186;2022-08-19T03:22:58;7.65;;;6.80;;
49101;SDS011;34913;47.520;19.186;2022-08-19T03:25:24;11.48;;;7.85;;
49101;SDS011;34913;47.520;19.186;2022-08-19T03:27:49;8.73;;;7.05;;
49101;SDS011;34913;47.520;19.186;2022-08-19T03:30:15;11.10;;;7.70;;
49101;SDS011;34913;47.520;19.186;2022-08-19T03:32:40;9.52;;;7.07;;
49101;SDS011;34913;47.520;19.186;2022-08-19T03:35:06;8.80;;;7.57;;
49101;SDS011;34913;47.520;19.186;2022-08-19T03:37:32;9.82;;;7.30;;
49101;SDS011;34913;47.520;19.186;2022-08-19T03:39:57;12.15;;;7.25;;
49101;SDS011;34913;47.520;19.186;2022-08-19T03:42:23;11.00;;;7.20;;
49101;SDS011;34913;47.520;19.186;2022-08-19T03:44:48;9.88;;;7.72;;
49101;SDS011;34913;47.520;19.186;2022-08-19T03:47:14;9.20;;;7.38;;
49101;SDS011;34913;47.520;19.186;2022-08-19T03:49:40;11.43;;;7.97;;
49101;SDS011;34913;47.520;19.186;2022-08-19T03:52:06;9.55;;;7.47;;
49101;SDS011;34913;47.520;19.186;2022-08-19T03:54:32;12.40;;;7.22;;
49101;SDS011;34913;47.520;19.186;2022-08-19T03:56:58;8.13;;;7.32;;
49101;SDS011;34913;47.520;19.186;2022-08-19T03:59:25;8.32;;;7.22;;
49101;SDS011;34913;47.520;19.186;2022-08-19T04:01:54;9.38;;;6.80;;
49101;SDS011;34913;47.520;19.186;2022-08-19T04:04:22;8.88;;;7.18;;
49101;SDS011;34913;47.520;19.186;2022-08-19T04:06:48;7.82;;;7.03;;
49101;SDS011;34913;47.520;19.186;2022-08-19T04:09:16;8.20;;;7.30;;
49101;SDS011;34913;47.520;19.186;2022-08-19T04:11:45;9.50;;;7.65;;
49101;SDS011;34913;47.520;19.186;2022-08-19T04:14:13;8.68;;;7.10;;
49101;SDS011;34913;47.520;19.186;2022-08-19T04:16:40;10.00;;;7.40;;
49101;SDS011;34913;47.520;19.186;2022-08-19T04:19:07;11.80;;;7.82;;
49101;SDS011;34913;47.520;19.186;2022-08-19T04:21:33;9.50;;;7.43;;
49101;SDS011;34913;47.520;19.186;2022-08-19T04:23:59;9.05;;;7.63;;
49101;SDS011;34913;47.520;19.186;2022-08-19T04:26:29;8.55;;;7.70;;
49101;SDS011;34913;47.520;19.186;2022-08-19T04:28:57;10.07;;;8.25;;
49101;SDS011;34913;47.520;19.186;2022-08-19T04:31:29;12.05;;;7.45;;
49101;SDS011;34913;47.520;19.186;2022-08-19T04:34:00;9.75;;;7.60;;
49101;SDS011;34913;47.520;19.186;2022-08-19T04:36:28;8.68;;;7.10;;
49101;SDS011;34913;47.520;19.186;2022-08-19T04:38:58;11.23;;;8.32;;
49101;SDS011;34913;47.520;19.186;2022-08-19T04:41:26;9.48;;;7.43;;
49101;SDS011;34913;47.520;19.186;2022-08-19T04:44:11;8.52;;;7.10;;
49101;SDS011;34913;47.520;19.186;2022-08-19T04:46:37;9.20;;;7.60;;
49101;SDS011;34913;47.520;19.186;2022-08-19T04:49:03;10.35;;;7.57;;
49101;SDS011;34913;47.520;19.186;2022-08-19T04:51:30;9.10;;;7.40;;
49101;SDS011;34913;47.520;19.186;2022-08-19T04:53:57;8.48;;;7.00;;
49101;SDS011;34913;47.520;19.186;2022-08-19T04:56:24;10.82;;;7.32;;
49101;SDS011;34913;47.520;19.186;2022-08-19T04:58:51;9.13;;;7.30;;
49101;SDS011;34913;47.520;19.186;2022-08-19T05:01:20;11.88;;;6.88;;
49101;SDS011;34913;47.520;19.186;2022-08-19T05:03:47;11.13;;;6.72;;
49101;SDS011;34913;47.520;19.186;2022-08-19T05:06:14;8.75;;;6.85;;
49101;SDS011;34913;47.520;19.186;2022-08-19T05:08:42;9.23;;;6.68;;
49101;SDS011;34913;47.520;19.186;2022-08-19T05:11:10;8.70;;;6.50;;
49101;SDS011;34913;47.520;19.186;2022-08-19T05:13:38;9.60;;;6.90;;
49101;SDS011;34913;47.520;19.186;2022-08-19T05:16:04;13.32;;;6.50;;
49101;SDS011;34913;47.520;19.186;2022-08-19T05:18:30;8.05;;;5.50;;
49101;SDS011;34913;47.520;19.186;2022-08-19T05:21:16;6.30;;;5.70;;
49101;SDS011;34913;47.520;19.186;2022-08-19T05:24:02;8.15;;;5.50;;
49101;SDS011;34913;47.520;19.186;2022-08-19T05:26:28;9.27;;;5.68;;
49101;SDS011;34913;47.520;19.186;2022-08-19T05:28:54;8.27;;;5.88;;
49101;SDS011;34913;47.520;19.186;2022-08-19T05:31:20;8.07;;;5.70;;
49101;SDS011;34913;47.520;19.186;2022-08-19T05:33:46;7.10;;;5.43;;
49101;SDS011;34913;47.520;19.186;2022-08-19T05:36:13;7.65;;;5.50;;
49101;SDS011;34913;47.520;19.186;2022-08-19T05:38:39;6.80;;;5.30;;
49101;SDS011;34913;47.520;19.186;2022-08-19T05:41:08;7.13;;;5.22;;
49101;SDS011;34913;47.520;19.186;2022-08-19T05:43:34;8.55;;;5.82;;
49101;SDS011;34913;47.520;19.186;2022-08-19T05:46:00;7.95;;;5.20;;
49101;SDS011;34913;47.520;19.186;2022-08-19T05:48:25;8.63;;;5.57;;
49101;SDS011;34913;47.520;19.186;2022-08-19T05:50:51;8.05;;;5.20;;
49101;SDS011;34913;47.520;19.186;2022-08-19T05:53:17;8.27;;;5.60;;
49101;SDS011;34913;47.520;19.186;2022-08-19T05:55:43;8.18;;;5.50;;
49101;SDS011;34913;47.520;19.186;2022-08-19T05:58:09;9.35;;;5.07;;
49101;SDS011;34913;47.520;19.186;2022-08-19T06:00:35;6.45;;;5.10;;
49101;SDS011;34913;47.520;19.186;2022-08-19T06:03:02;6.10;;;5.20;;
49101;SDS011;34913;47.520;19.186;2022-08-19T06:05:31;6.47;;;5.18;;
49101;SDS011;34913;47.520;19.186;2022-08-19T06:07:57;12.02;;;5.30;;
49101;SDS011;34913;47.520;19.186;2022-08-19T06:10:24;8.75;;;5.13;;
49101;SDS011;34913;47.520;19.186;2022-08-19T06:12:49;7.30;;;4.85;;
49101;SDS011;34913;47.520;19.186;2022-08-19T06:15:15;6.00;;;5.10;;
49101;SDS011;34913;47.520;19.186;2022-08-19T06:17:41;7.35;;;4.93;;
49101;SDS011;34913;47.520;19.186;2022-08-19T06:20:11;6.80;;;4.90;;
49101;SDS011;34913;47.520;19.186;2022-08-19T06:22:42;6.72;;;4.95;;
49101;SDS011;34913;47.520;19.186;2022-08-19T06:25:10;6.88;;;4.70;;
49101;SDS011;34913;47.520;19.186;2022-08-19T06:27:37;12.75;;;5.28;;
49101;SDS011;34913;47.520;19.186;2022-08-19T06:30:03;7.03;;;4.60;;
49101;SDS011;34913;47.520;19.186;2022-08-19T06:32:29;7.93;;;4.60;;
49101;SDS011;34913;47.520;19.186;2022-08-19T06:34:55;7.22;;;4.55;;
49101;SDS011;34913;47.520;19.186;2022-08-19T06:37:21;7.38;;;4.68;;
49101;SDS011;34913;47.520;19.186;2022-08-19T06:39:47;8.00;;;4.50;;
49101;SDS011;34913;47.520;19.186;2022-08-19T06:42:13;5.38;;;4.28;;
49101;SDS011;34913;47.520;19.186;2022-08-19T06:44:41;5.60;;;4.53;;
49101;SDS011;34913;47.520;19.186;2022-08-19T06:47:08;8.00;;;4.70;;
49101;SDS011;34913;47.520;19.186;2022-08-19T06:49:35;6.07;;;4.60;;
49101;SDS011;34913;47.520;19.186;2022-08-19T06:52:01;7.25;;;5.15;;
49101;SDS011;34913;47.520;19.186;2022-08-19T06:54:28;8.65;;;4.78;;
49101;SDS011;34913;47.520;19.186;2022-08-19T06:56:54;8.43;;;4.80;;
49101;SDS011;34913;47.520;19.186;2022-08-19T06:59:21;10.25;;;4.57;;
49101;SDS011;34913;47.520;19.186;2022-08-19T07:01:52;8.52;;;4.78;;
49101;SDS011;34913;47.520;19.186;2022-08-19T07:04:23;7.97;;;4.70;;
49101;SDS011;34913;47.520;19.186;2022-08-19T07:06:59;5.53;;;4.72;;
49101;SDS011;34913;47.520;19.186;2022-08-19T07:09:33;6.90;;;4.63;;
49101;SDS011;34913;47.520;19.186;2022-08-19T07:12:02;6.30;;;4.70;;
49101;SDS011;34913;47.520;19.186;2022-08-19T07:14:30;7.60;;;4.75;;
49101;SDS011;34913;47.520;19.186;2022-08-19T07:16:56;8.20;;;5.10;;
49101;SDS011;34913;47.520;19.186;2022-08-19T07:19:23;5.43;;;4.40;;
49101;SDS011;34913;47.520;19.186;2022-08-19T07:21:51;7.72;;;4.60;;
49101;SDS011;34913;47.520;19.186;2022-08-19T07:24:21;8.40;;;4.70;;
49101;SDS011;34913;47.520;19.186;2022-08-19T07:26:49;7.15;;;4.90;;
49101;SDS011;34913;47.520;19.186;2022-08-19T07:29:15;6.55;;;4.80;;
49101;SDS011;34913;47.520;19.186;2022-08-19T07:31:41;6.13;;;4.80;;
49101;SDS011;34913;47.520;19.186;2022-08-19T07:34:08;7.03;;;4.63;;
49101;SDS011;34913;47.520;19.186;2022-08-19T07:36:37;7.90;;;4.50;;
49101;SDS011;34913;47.520;19.186;2022-08-19T07:39:08;5.13;;;4.25;;
49101;SDS011;34913;47.520;19.186;2022-08-19T07:41:37;6.10;;;4.20;;
49101;SDS011;34913;47.520;19.186;2022-08-19T07:44:04;5.40;;;4.38;;
49101;SDS011;34913;47.520;19.186;2022-08-19T07:46:38;7.63;;;4.80;;
49101;SDS011;34913;47.520;19.186;2022-08-19T07:49:06;4.78;;;4.28;;
49101;SDS011;34913;47.520;19.186;2022-08-19T07:51:33;6.78;;;4.25;;
49101;SDS011;34913;47.520;19.186;2022-08-19T07:54:00;6.65;;;4.70;;
49101;SDS011;34913;47.520;19.186;2022-08-19T07:56:26;4.55;;;4.13;;
49101;SDS011;34913;47.520;19.186;2022-08-19T07:58:52;14.35;;;4.35;;
49101;SDS011;34913;47.520;19.186;2022-08-19T08:01:22;7.25;;;4.82;;
49101;SDS011;34913;47.520;19.186;2022-08-19T08:03:50;5.20;;;4.30;;
49101;SDS011;34913;47.520;19.186;2022-08-19T08:06:36;6.05;;;4.15;;
49101;SDS011;34913;47.520;19.186;2022-08-19T08:09:22;5.75;;;3.95;;
49101;SDS011;34913;47.520;19.186;2022-08-19T08:11:55;6.47;;;4.23;;
49101;SDS011;34913;47.520;19.186;2022-08-19T08:14:29;7.43;;;4.05;;
49101;SDS011;34913;47.520;19.186;2022-08-19T08:16:58;7.30;;;4.32;;
49101;SDS011;34913;47.520;19.186;2022-08-19T08:19:24;6.63;;;4.00;;
49101;SDS011;34913;47.520;19.186;2022-08-19T08:21:52;8.80;;;4.43;;
49101;SDS011;34913;47.520;19.186;2022-08-19T08:24:18;4.65;;;3.88;;
49101;SDS011;34913;47.520;19.186;2022-08-19T08:26:45;5.82;;;4.28;;
49101;SDS011;34913;47.520;19.186;2022-08-19T08:29:11;4.85;;;3.70;;
49101;SDS011;34913;47.520;19.186;2022-08-19T08:31:38;6.72;;;3.90;;
49101;SDS011;34913;47.520;19.186;2022-08-19T08:34:06;10.25;;;4.18;;
49101;SDS011;34913;47.520;19.186;2022-08-19T08:36:32;4.30;;;3.90;;
49101;SDS011;34913;47.520;19.186;2022-08-19T08:39:10;5.72;;;3.95;;
49101;SDS011;34913;47.520;19.186;2022-08-19T08:47:02;7.32;;;4.00;;
49101;SDS011;34913;47.520;19.186;2022-08-19T08:50:12;5.20;;;3.80;;
49101;SDS011;34913;47.520;19.186;2022-08-19T08:52:44;6.35;;;3.85;;
49101;SDS011;34913;47.520;19.186;2022-08-19T08:55:14;7.35;;;4.00;;
49101;SDS011;34913;47.520;19.186;2022-08-19T09:00:18;11.63;;;4.40;;
49101;SDS011;34913;47.520;19.186;2022-08-19T09:02:49;5.72;;;4.00;;
49101;SDS011;34913;47.520;19.186;2022-08-19T09:05:14;10.23;;;4.10;;
49101;SDS011;34913;47.520;19.186;2022-08-19T09:15:31;4.68;;;3.97;;
49101;SDS011;34913;47.520;19.186;2022-08-19T09:18:04;5.70;;;3.70;;
49101;SDS011;34913;47.520;19.186;2022-08-19T09:20:31;8.30;;;4.10;;
49101;SDS011;34913;47.520;19.186;2022-08-19T09:22:57;6.88;;;3.70;;
49101;SDS011;34913;47.520;19.186;2022-08-19T09:25:23;6.45;;;3.53;;
49101;SDS011;34913;47.520;19.186;2022-08-19T09:27:49;4.47;;;3.67;;
49101;SDS011;34913;47.520;19.186;2022-08-19T09:30:26;4.32;;;3.45;;
49101;SDS011;34913;47.520;19.186;2022-08-19T09:32:53;8.57;;;4.18;;
49101;SDS011;34913;47.520;19.186;2022-08-19T09:35:21;10.77;;;3.95;;
49101;SDS011;34913;47.520;19.186;2022-08-19T09:37:48;7.43;;;3.45;;
49101;SDS011;34913;47.520;19.186;2022-08-19T09:40:14;6.40;;;3.35;;
49101;SDS011;34913;47.520;19.186;2022-08-19T09:42:40;4.80;;;3.40;;
49101;SDS011;34913;47.520;19.186;2022-08-19T09:45:08;6.13;;;3.70;;
49101;SDS011;34913;47.520;19.186;2022-08-19T09:47:34;8.05;;;3.17;;
49101;SDS011;34913;47.520;19.186;2022-08-19T09:50:06;5.72;;;3.42;;
49101;SDS011;34913;47.520;19.186;2022-08-19T09:52:33;3.70;;;3.40;;
49101;SDS011;34913;47.520;19.186;2022-08-19T09:55:02;4.82;;;3.20;;
49101;SDS011;34913;47.520;19.186;2022-08-19T09:57:28;5.70;;;3.80;;
49101;SDS011;34913;47.520;19.186;2022-08-19T09:59:54;4.72;;;3.33;;
49101;SDS011;34913;47.520;19.186;2022-08-19T10:02:19;4.50;;;3.70;;
49101;SDS011;34913;47.520;19.186;2022-08-19T10:04:45;9.98;;;4.03;;
49101;SDS011;34913;47.520;19.186;2022-08-19T10:07:29;4.40;;;3.65;;
49101;SDS011;34913;47.520;19.186;2022-08-19T10:09:55;6.68;;;3.58;;
49101;SDS011;34913;47.520;19.186;2022-08-19T10:12:21;6.68;;;3.70;;
49101;SDS011;34913;47.520;19.186;2022-08-19T10:14:47;7.07;;;3.58;;
49101;SDS011;34913;47.520;19.186;2022-08-19T10:17:13;4.57;;;3.65;;
49101;SDS011;34913;47.520;19.186;2022-08-19T10:19:39;8.15;;;3.85;;
49101;SDS011;34913;47.520;19.186;2022-08-19T10:22:05;5.40;;;3.40;;
49101;SDS011;34913;47.520;19.186;2022-08-19T10:24:32;6.57;;;3.40;;
49101;SDS011;34913;47.520;19.186;2022-08-19T10:26:59;7.40;;;3.35;;
49101;SDS011;34913;47.520;19.186;2022-08-19T10:29:28;6.15;;;3.63;;
49101;SDS011;34913;47.520;19.186;2022-08-19T10:31:55;3.78;;;3.47;;
49101;SDS011;34913;47.520;19.186;2022-08-19T10:34:21;6.15;;;3.55;;
49101;SDS011;34913;47.520;19.186;2022-08-19T10:36:47;5.13;;;3.40;;
49101;SDS011;34913;47.520;19.186;2022-08-19T10:39:13;6.15;;;3.70;;
49101;SDS011;34913;47.520;19.186;2022-08-19T10:41:39;6.88;;;3.53;;
49101;SDS011;34913;47.520;19.186;2022-08-19T10:44:06;5.78;;;3.67;;
49101;SDS011;34913;47.520;19.186;2022-08-19T10:46:34;7.43;;;3.63;;
49101;SDS011;34913;47.520;19.186;2022-08-19T10:49:02;4.30;;;3.50;;
49101;SDS011;34913;47.520;19.186;2022-08-19T10:51:29;4.20;;;3.33;;
49101;SDS011;34913;47.520;19.186;2022-08-19T10:54:15;4.35;;;3.40;;
49101;SDS011;34913;47.520;19.186;2022-08-19T10:56:41;5.40;;;3.33;;
49101;SDS011;34913;47.520;19.186;2022-08-19T10:59:20;9.13;;;4.03;;
49101;SDS011;34913;47.520;19.186;2022-08-19T11:01:48;6.47;;;3.30;;
49101;SDS011;34913;47.520;19.186;2022-08-19T11:04:15;4.18;;;3.10;;
49101;SDS011;34913;47.520;19.186;2022-08-19T11:06:43;5.60;;;3.80;;
49101;SDS011;34913;47.520;19.186;2022-08-19T11:09:20;6.13;;;3.45;;
49101;SDS011;34913;47.520;19.186;2022-08-19T11:11:49;6.35;;;3.72;;
49101;SDS011;34913;47.520;19.186;2022-08-19T11:14:16;3.65;;;3.33;;
49101;SDS011;34913;47.520;19.186;2022-08-19T11:16:44;5.93;;;3.17;;
49101;SDS011;34913;47.520;19.186;2022-08-19T11:19:10;7.65;;;3.20;;
49101;SDS011;34913;47.520;19.186;2022-08-19T11:21:43;5.70;;;3.03;;
49101;SDS011;34913;47.520;19.186;2022-08-19T11:24:11;4.32;;;3.05;;
49101;SDS011;34913;47.520;19.186;2022-08-19T11:26:39;4.95;;;3.28;;
49101;SDS011;34913;47.520;19.186;2022-08-19T11:29:06;7.70;;;3.25;;
49101;SDS011;34913;47.520;19.186;2022-08-19T11:31:38;8.23;;;3.20;;
49101;SDS011;34913;47.520;19.186;2022-08-19T11:34:09;4.55;;;2.67;;
49101;SDS011;34913;47.520;19.186;2022-08-19T11:36:38;6.00;;;3.20;;
49101;SDS011;34913;47.520;19.186;2022-08-19T11:39:06;4.15;;;3.17;;
49101;SDS011;34913;47.520;19.186;2022-08-19T11:41:32;8.55;;;3.22;;
49101;SDS011;34913;47.520;19.186;2022-08-19T11:43:58;5.50;;;3.30;;
49101;SDS011;34913;47.520;19.186;2022-08-19T11:46:24;7.70;;;3.10;;
49101;SDS011;34913;47.520;19.186;2022-08-19T11:48:54;6.88;;;2.97;;
49101;SDS011;34913;47.520;19.186;2022-08-19T11:51:21;5.85;;;3.10;;
49101;SDS011;34913;47.520;19.186;2022-08-19T11:53:49;4.53;;;3.20;;
49101;SDS011;34913;47.520;19.186;2022-08-19T11:56:15;4.90;;;3.47;;
49101;SDS011;34913;47.520;19.186;2022-08-19T11:58:41;4.82;;;2.90;;
49101;SDS011;34913;47.520;19.186;2022-08-19T12:01:13;5.10;;;3.28;;
49101;SDS011;34913;47.520;19.186;2022-08-19T12:03:44;5.63;;;3.40;;
49101;SDS011;34913;47.520;19.186;2022-08-19T12:06:12;6.03;;;3.10;;
49101;SDS011;34913;47.520;19.186;2022-08-19T12:08:40;7.53;;;3.17;;
49101;SDS011;34913;47.520;19.186;2022-08-19T12:11:07;8.15;;;3.10;;
49101;SDS011;34913;47.520;19.186;2022-08-19T12:13:33;6.07;;;3.10;;
49101;SDS011;34913;47.520;19.186;2022-08-19T12:15:59;3.97;;;3.00;;
49101;SDS011;34913;47.520;19.186;2022-08-19T12:18:26;4.75;;;3.22;;
49101;SDS011;34913;47.520;19.186;2022-08-19T12:20:53;7.53;;;3.15;;
49101;SDS011;34913;47.520;19.186;2022-08-19T12:23:21;5.30;;;2.95;;
49101;SDS011;34913;47.520;19.186;2022-08-19T12:25:48;6.25;;;3.70;;
49101;SDS011;34913;47.520;19.186;2022-08-19T12:28:18;7.43;;;3.28;;
49101;SDS011;34913;47.520;19.186;2022-08-19T12:30:44;6.68;;;2.95;;
49101;SDS011;34913;47.520;19.186;2022-08-19T12:33:10;6.70;;;3.40;;
49101;SDS011;34913;47.520;19.186;2022-08-19T12:35:39;4.35;;;3.40;;
49101;SDS011;34913;47.520;19.186;2022-08-19T12:38:09;5.07;;;3.10;;
49101;SDS011;34913;47.520;19.186;2022-08-19T12:40:35;6.35;;;3.30;;
49101;SDS011;34913;47.520;19.186;2022-08-19T12:43:01;8.60;;;3.95;;
49101;SDS011;34913;47.520;19.186;2022-08-19T12:45:27;7.03;;;4.20;;
49101;SDS011;34913;47.520;19.186;2022-08-19T12:47:53;7.18;;;4.20;;
49101;SDS011;34913;47.520;19.186;2022-08-19T12:50:19;9.82;;;4.60;;
49101;SDS011;34913;47.520;19.186;2022-08-19T12:52:46;9.95;;;4.88;;
49101;SDS011;34913;47.520;19.186;2022-08-19T12:55:12;6.90;;;4.45;;
49101;SDS011;34913;47.520;19.186;2022-08-19T12:57:38;8.50;;;4.63;;
49101;SDS011;34913;47.520;19.186;2022-08-19T13:00:08;11.48;;;4.20;;
49101;SDS011;34913;47.520;19.186;2022-08-19T13:02:37;10.43;;;4.32;;
49101;SDS011;34913;47.520;19.186;2022-08-19T13:05:06;10.05;;;4.40;;
49101;SDS011;34913;47.520;19.186;2022-08-19T13:07:33;7.35;;;4.60;;
49101;SDS011;34913;47.520;19.186;2022-08-19T13:09:59;12.30;;;4.70;;
49101;SDS011;34913;47.520;19.186;2022-08-19T13:12:25;8.73;;;4.80;;
49101;SDS011;34913;47.520;19.186;2022-08-19T13:14:52;7.55;;;4.43;;
49101;SDS011;34913;47.520;19.186;2022-08-19T13:17:18;11.65;;;4.75;;
49101;SDS011;34913;47.520;19.186;2022-08-19T13:19:43;6.57;;;4.68;;
49101;SDS011;34913;47.520;19.186;2022-08-19T13:22:09;7.68;;;4.00;;
49101;SDS011;34913;47.520;19.186;2022-08-19T13:24:34;7.38;;;4.45;;
49101;SDS011;34913;47.520;19.186;2022-08-19T13:27:01;8.25;;;4.15;;
49101;SDS011;34913;47.520;19.186;2022-08-19T13:29:27;8.20;;;3.88;;
49101;SDS011;34913;47.520;19.186;2022-08-19T13:32:12;9.38;;;4.18;;
49101;SDS011;34913;47.520;19.186;2022-08-19T13:34:55;10.85;;;4.28;;
49101;SDS011;34913;47.520;19.186;2022-08-19T13:37:21;7.57;;;4.32;;
49101;SDS011;34913;47.520;19.186;2022-08-19T13:40:06;6.65;;;4.05;;
49101;SDS011;34913;47.520;19.186;2022-08-19T13:42:36;6.88;;;4.28;;
49101;SDS011;34913;47.520;19.186;2022-08-19T13:45:01;9.65;;;4.45;;
49101;SDS011;34913;47.520;19.186;2022-08-19T13:47:27;13.07;;;4.40;;
49101;SDS011;34913;47.520;19.186;2022-08-19T13:49:52;10.98;;;4.75;;
49101;SDS011;34913;47.520;19.186;2022-08-19T13:52:18;12.48;;;5.20;;
49101;SDS011;34913;47.520;19.186;2022-08-19T13:54:43;12.02;;;5.22;;
49101;SDS011;34913;47.520;19.186;2022-08-19T13:57:09;10.82;;;5.25;;
49101;SDS011;34913;47.520;19.186;2022-08-19T13:59:34;9.18;;;5.72;;
49101;SDS011;34913;47.520;19.186;2022-08-19T14:02:00;13.73;;;9.15;;
49101;SDS011;34913;47.520;19.186;2022-08-19T14:04:25;12.30;;;9.25;;
49101;SDS011;34913;47.520;19.186;2022-08-19T14:06:51;13.02;;;8.60;;
49101;SDS011;34913;47.520;19.186;2022-08-19T14:09:17;16.52;;;8.98;;
49101;SDS011;34913;47.520;19.186;2022-08-19T14:11:42;15.27;;;9.90;;
49101;SDS011;34913;47.520;19.186;2022-08-19T14:14:10;15.63;;;9.85;;
49101;SDS011;34913;47.520;19.186;2022-08-19T14:16:36;18.58;;;9.55;;
49101;SDS011;34913;47.520;19.186;2022-08-19T14:19:01;14.10;;;8.18;;
49101;SDS011;34913;47.520;19.186;2022-08-19T14:21:26;15.40;;;7.75;;
49101;SDS011;34913;47.520;19.186;2022-08-19T14:23:52;12.43;;;7.55;;
49101;SDS011;34913;47.520;19.186;2022-08-19T14:26:18;15.82;;;7.05;;
49101;SDS011;34913;47.520;19.186;2022-08-19T14:28:45;21.58;;;4.72;;
49101;SDS011;34913;47.520;19.186;2022-08-19T14:31:11;16.33;;;3.95;;
49101;SDS011;34913;47.520;19.186;2022-08-19T14:33:38;17.35;;;3.70;;
49101;SDS011;34913;47.520;19.186;2022-08-19T14:36:05;12.10;;;3.28;;
49101;SDS011;34913;47.520;19.186;2022-08-19T14:38:31;11.07;;;3.67;;
49101;SDS011;34913;47.520;19.186;2022-08-19T14:43:52;13.05;;;3.28;;
49101;SDS011;34913;47.520;19.186;2022-08-19T14:46:19;11.30;;;3.30;;
49101;SDS011;34913;47.520;19.186;2022-08-19T14:48:46;15.48;;;3.38;;
49101;SDS011;34913;47.520;19.186;2022-08-19T14:51:13;12.57;;;3.13;;
49101;SDS011;34913;47.520;19.186;2022-08-19T14:53:39;12.18;;;3.80;;
49101;SDS011;34913;47.520;19.186;2022-08-19T14:56:09;23.80;;;3.90;;
49101;SDS011;34913;47.520;19.186;2022-08-19T14:58:37;31.58;;;3.40;;